Time;durP1;ratioP1;P1;durP2;ratioP2;P2;SDS_P1;SDS_P2;PMS_P1;PMS_P2;Temp;Humidity;BMP_temperature;BMP_pressure;BME280_temperature;BME280_humidity;BME280_pressure;Samples;Min_cycle;Max_cycle;Signal;HPM_P1;HPM_P2
2020/12/17 00:01:11;;;;;;;21.90;13.10;;;7.40;99.90;;;;;;5004230;28;20600;-68
2020/12/17 00:03:37;;;;;;;24.63;13.83;;;7.50;99.90;;;;;;5009975;28;20555;-68
2020/12/17 00:06:05;;;;;;;24.63;12.70;;;7.50;99.90;;;;;;5014376;28;20457;-68
2020/12/17 00:08:31;;;;;;;23.83;14.40;;;7.50;99.90;;;;;;5001292;28;20485;-68
2020/12/17 00:10:58;;;;;;;22.87;12.10;;;7.50;99.90;;;;;;4996171;28;20529;-67
2020/12/17 00:13:24;;;;;;;18.90;11.70;;;7.40;99.90;;;;;;4988971;28;20485;-67
2020/12/17 00:15:51;;;;;;;20.40;13.57;;;7.40;99.90;;;;;;4989981;28;20430;-67
2020/12/17 00:18:17;;;;;;;25.47;12.77;;;7.40;99.90;;;;;;4992421;28;20447;-67
2020/12/17 00:20:44;;;;;;;24.17;13.13;;;7.40;99.90;;;;;;4996083;28;20533;-68
2020/12/17 00:23:11;;;;;;;19.97;12.30;;;7.30;99.90;;;;;;4993729;28;20473;-67
2020/12/17 00:25:37;;;;;;;22.43;14.60;;;7.40;99.90;;;;;;4996072;28;20494;-67
2020/12/17 00:28:04;;;;;;;21.50;12.27;;;7.40;99.90;;;;;;4999248;28;20767;-68
2020/12/17 00:30:30;;;;;;;25.27;12.97;;;7.40;99.90;;;;;;4996284;28;21025;-68
2020/12/17 00:32:57;;;;;;;20.83;14.30;;;7.40;99.90;;;;;;4987759;28;20760;-68
2020/12/17 00:35:23;;;;;;;24.13;13.87;;;7.40;99.90;;;;;;4980127;28;20447;-66
2020/12/17 00:37:50;;;;;;;18.20;11.97;;;7.50;99.90;;;;;;4984355;28;20904;-69
2020/12/17 07:28:14;;;;;;;29.57;16.43;;;5.30;99.90;;;;;;5601210;23;20560;-67
2020/12/17 07:30:51;;;;;;;30.40;18.20;;;5.40;99.90;;;;;;4999423;28;20891;-68
2020/12/17 07:33:41;;;;;;;28.07;14.47;;;5.40;99.90;;;;;;5001843;28;20449;-70
2020/12/17 07:36:08;;;;;;;26.17;15.50;;;5.40;99.90;;;;;;5003341;28;20442;-67
2020/12/17 07:38:35;;;;;;;26.27;16.10;;;5.30;99.90;;;;;;5003151;28;21013;-68
2020/12/17 07:41:01;;;;;;;28.60;16.23;;;5.30;99.90;;;;;;5003551;28;20474;-69
2020/12/17 07:43:40;;;;;;;29.70;18.13;;;5.40;99.90;;;;;;5002724;28;20604;-68
2020/12/17 07:46:08;;;;;;;34.63;16.00;;;5.50;99.90;;;;;;5002699;28;20513;-68
2020/12/17 07:48:35;;;;;;;25.37;14.43;;;5.50;99.90;;;;;;5003636;28;20455;-67
2020/12/17 07:51:03;;;;;;;39.47;15.63;;;5.50;99.90;;;;;;5005019;28;20919;-66
2020/12/17 07:53:30;;;;;;;32.37;16.40;;;5.60;99.90;;;;;;5000549;28;20521;-66
2020/12/17 07:55:59;;;;;;;32.00;17.50;;;5.70;99.90;;;;;;5006837;28;20466;-67
2020/12/17 07:58:26;;;;;;;33.30;17.90;;;5.60;99.90;;;;;;5015692;28;20464;-67
2020/12/17 08:00:54;;;;;;;27.20;15.70;;;5.70;99.90;;;;;;5011785;28;20544;-67
2020/12/17 08:03:21;;;;;;;31.43;14.70;;;5.80;99.90;;;;;;5010625;28;20517;-66
2020/12/17 08:05:47;;;;;;;33.10;16.40;;;5.80;99.90;;;;;;5002869;28;20433;-67
2020/12/17 08:08:15;;;;;;;31.10;17.33;;;5.80;99.90;;;;;;5018449;28;20445;-67
2020/12/17 08:10:41;;;;;;;30.83;15.77;;;5.80;99.90;;;;;;5006438;28;20494;-68
2020/12/17 08:13:08;;;;;;;32.80;17.10;;;5.80;99.90;;;;;;5005128;28;20485;-66
2020/12/17 08:15:34;;;;;;;33.20;17.33;;;5.80;99.90;;;;;;5007675;28;20841;-67
2020/12/17 08:18:02;;;;;;;30.13;17.70;;;5.90;99.90;;;;;;5010065;28;20530;-67
2020/12/17 08:20:29;;;;;;;31.60;15.37;;;5.80;99.90;;;;;;5001031;28;20456;-66
2020/12/17 08:22:56;;;;;;;29.00;15.33;;;5.80;99.90;;;;;;5017988;28;20464;-67
2020/12/17 08:25:23;;;;;;;33.40;17.07;;;5.90;99.90;;;;;;5002204;28;20555;-66
2020/12/17 08:27:51;;;;;;;29.83;15.70;;;5.90;99.90;;;;;;5005871;28;20493;-67
2020/12/17 08:30:18;;;;;;;29.87;15.30;;;5.90;99.90;;;;;;5007217;28;20461;-67
2020/12/17 08:32:49;;;;;;;29.67;14.97;;;5.90;99.90;;;;;;5010034;28;20485;-67
2020/12/17 08:35:21;;;;;;;30.00;16.20;;;5.90;99.90;;;;;;5005741;28;20496;-68
2020/12/17 08:37:50;;;;;;;35.60;15.50;;;5.90;99.90;;;;;;5018947;28;20445;-66
2020/12/17 08:40:21;;;;;;;32.37;15.13;;;5.80;99.90;;;;;;5008508;28;20871;-67
2020/12/17 08:42:53;;;;;;;25.77;14.00;;;5.90;99.90;;;;;;5014565;28;20884;-66
2020/12/17 08:45:21;;;;;;;30.40;15.60;;;6.00;99.90;;;;;;5011243;28;20528;-66
2020/12/17 08:47:50;;;;;;;33.17;16.57;;;6.00;99.90;;;;;;5013535;28;20767;-67
2020/12/17 08:50:18;;;;;;;31.53;17.43;;;6.10;99.90;;;;;;5002286;28;20457;-66
2020/12/17 08:52:45;;;;;;;31.53;14.60;;;6.20;99.90;;;;;;5014106;28;20456;-67
2020/12/17 08:55:12;;;;;;;31.80;14.57;;;6.20;99.90;;;;;;5008502;28;20544;-66
2020/12/17 08:57:39;;;;;;;27.33;13.23;;;6.20;99.90;;;;;;5018598;28;20917;-65
2020/12/17 09:00:12;;;;;;;28.03;16.60;;;6.20;99.90;;;;;;5012624;28;20787;-67
2020/12/17 09:02:40;;;;;;;26.63;15.97;;;6.20;99.90;;;;;;5008553;28;20460;-67
2020/12/17 09:05:12;;;;;;;30.07;16.50;;;6.20;99.90;;;;;;5004912;28;20484;-67
2020/12/17 09:07:46;;;;;;;28.33;14.30;;;6.20;99.90;;;;;;5000031;28;20461;-67
2020/12/17 09:10:17;;;;;;;27.80;15.73;;;6.30;99.90;;;;;;5011960;28;20460;-66
2020/12/17 09:12:44;;;;;;;26.77;14.97;;;6.30;99.90;;;;;;5002508;28;20906;-67
2020/12/17 09:15:12;;;;;;;31.30;15.77;;;6.30;99.90;;;;;;5002412;28;20457;-67
2020/12/17 09:17:40;;;;;;;29.10;16.77;;;6.30;99.90;;;;;;5007874;28;20468;-67
2020/12/17 09:20:16;;;;;;;25.50;15.23;;;6.40;99.90;;;;;;5017873;28;20778;-66
2020/12/17 09:22:43;;;;;;;27.33;15.10;;;6.50;99.90;;;;;;5018341;28;20809;-66
2020/12/17 09:25:10;;;;;;;26.50;14.87;;;6.50;99.90;;;;;;5019495;28;20489;-66
2020/12/17 09:27:42;;;;;;;24.50;14.50;;;6.50;99.90;;;;;;5019430;28;20484;-68
2020/12/17 09:30:13;;;;;;;29.83;14.03;;;6.50;99.90;;;;;;5018946;28;20517;-66
2020/12/17 09:32:42;;;;;;;25.60;13.83;;;6.40;99.90;;;;;;5019264;28;20932;-65
2020/12/17 09:35:11;;;;;;;28.70;15.33;;;6.50;99.90;;;;;;5018221;28;20891;-66
2020/12/17 09:37:39;;;;;;;30.83;14.97;;;6.60;99.90;;;;;;4996109;28;20446;-68
2020/12/17 09:40:08;;;;;;;27.13;13.80;;;6.60;99.90;;;;;;4997127;28;20803;-68
2020/12/17 09:42:39;;;;;;;27.67;13.37;;;6.60;99.90;;;;;;4984280;28;20443;-70
2020/12/17 09:45:14;;;;;;;24.30;14.03;;;6.70;99.90;;;;;;4977985;28;20494;-70
2020/12/17 09:47:41;;;;;;;28.97;15.33;;;6.70;99.90;;;;;;4978312;28;20462;-68
2020/12/17 09:50:14;;;;;;;27.33;15.80;;;6.70;99.90;;;;;;4982231;28;20450;-67
2020/12/17 09:52:41;;;;;;;25.50;14.00;;;6.70;99.90;;;;;;4967955;28;20482;-69
2020/12/17 09:55:08;;;;;;;27.60;14.60;;;6.70;99.90;;;;;;4982932;28;20490;-70
2020/12/17 09:57:38;;;;;;;22.47;13.37;;;6.80;99.90;;;;;;4979277;28;20612;-71
2020/12/17 10:00:08;;;;;;;28.57;14.73;;;6.80;99.90;;;;;;4982340;28;20466;-70
2020/12/17 10:02:34;;;;;;;28.77;14.70;;;6.80;99.90;;;;;;4981956;28;20454;-72
2020/12/17 10:05:02;;;;;;;33.77;16.97;;;6.80;99.90;;;;;;4981850;28;20864;-70
2020/12/17 10:07:28;;;;;;;28.60;13.07;;;6.80;99.90;;;;;;4981543;28;20446;-69
2020/12/17 10:09:55;;;;;;;23.83;13.10;;;6.80;99.90;;;;;;4981865;28;20462;-70
2020/12/17 10:12:21;;;;;;;24.47;13.00;;;6.80;99.90;;;;;;4981785;28;20450;-69
2020/12/17 10:14:48;;;;;;;28.27;14.60;;;7.00;99.90;;;;;;4981204;28;20458;-70
2020/12/17 10:17:16;;;;;;;27.27;15.50;;;7.20;99.90;;;;;;4981045;28;20470;-70
2020/12/17 10:19:43;;;;;;;24.20;14.30;;;7.20;99.90;;;;;;4988075;28;20508;-70
2020/12/17 10:22:09;;;;;;;23.77;13.07;;;7.20;99.90;;;;;;5000317;28;20915;-76
2020/12/17 10:24:36;;;;;;;28.33;13.87;;;7.30;99.90;;;;;;4991708;28;20486;-74
2020/12/17 10:27:06;;;;;;;23.10;13.23;;;7.40;99.90;;;;;;4995010;28;20832;-72
2020/12/17 10:29:32;;;;;;;20.97;12.50;;;7.40;99.90;;;;;;4999645;28;20452;-75
2020/12/17 10:32:00;;;;;;;23.73;12.37;;;7.40;99.90;;;;;;5001008;28;20589;-68
2020/12/17 10:34:27;;;;;;;25.20;14.07;;;7.40;99.90;;;;;;4992561;28;20439;-76
2020/12/17 10:36:54;;;;;;;26.33;13.30;;;7.40;99.90;;;;;;4993514;28;20442;-71
2020/12/17 10:39:20;;;;;;;22.93;13.30;;;7.50;99.90;;;;;;5000637;28;20878;-68
2020/12/17 10:41:47;;;;;;;23.67;12.93;;;7.60;99.90;;;;;;4998374;28;20427;-66
2020/12/17 10:44:13;;;;;;;25.53;13.07;;;7.70;99.90;;;;;;4987820;28;20520;-70
2020/12/17 10:46:40;;;;;;;26.50;13.10;;;7.70;99.90;;;;;;4991390;28;20506;-67
2020/12/17 10:49:06;;;;;;;22.77;13.70;;;7.80;99.90;;;;;;4994227;28;20533;-67
2020/12/17 10:51:35;;;;;;;27.77;14.50;;;7.70;99.90;;;;;;4983678;28;20446;-67
2020/12/17 10:54:02;;;;;;;29.53;13.60;;;7.70;99.90;;;;;;4992620;28;20486;-68
2020/12/17 10:56:28;;;;;;;22.80;12.73;;;7.80;99.90;;;;;;4987912;28;20454;-68
2020/12/17 10:58:54;;;;;;;25.97;14.27;;;7.90;99.90;;;;;;4987776;28;20466;-68
2020/12/17 11:01:22;;;;;;;26.60;12.40;;;7.90;99.90;;;;;;4995372;28;20489;-66
2020/12/17 11:03:49;;;;;;;22.17;12.73;;;8.50;99.90;;;;;;4986251;28;20509;-67
2020/12/17 11:06:19;;;;;;;22.43;12.60;;;9.60;99.90;;;;;;5002187;28;20454;-67
2020/12/17 11:08:47;;;;;;;19.20;12.20;;;10.00;99.90;;;;;;4988821;28;20454;-69
2020/12/17 11:11:15;;;;;;;21.43;12.53;;;10.40;99.90;;;;;;4978368;28;20465;-70
2020/12/17 11:13:42;;;;;;;21.00;12.67;;;10.80;99.90;;;;;;4993127;28;20435;-69
2020/12/17 11:16:09;;;;;;;22.57;12.37;;;10.90;99.90;;;;;;4980655;28;20986;-66
2020/12/17 11:18:35;;;;;;;21.43;12.70;;;10.40;99.90;;;;;;4979680;28;20493;-66
2020/12/17 11:21:02;;;;;;;21.13;10.43;;;10.00;99.90;;;;;;4991339;28;20787;-66
2020/12/17 11:23:28;;;;;;;21.03;11.03;;;9.70;99.90;;;;;;4997084;28;20469;-70
2020/12/17 11:25:56;;;;;;;23.60;12.33;;;9.20;99.90;;;;;;4982058;28;20505;-73
2020/12/17 11:28:22;;;;;;;21.00;10.60;;;8.90;99.90;;;;;;4990092;28;20483;-74
2020/12/17 11:30:49;;;;;;;20.77;12.47;;;8.80;99.90;;;;;;4990299;28;20512;-71
2020/12/17 11:33:15;;;;;;;19.03;10.40;;;8.70;99.90;;;;;;4998139;28;20462;-75
2020/12/17 11:35:42;;;;;;;18.60;11.10;;;8.60;99.90;;;;;;4982100;28;20479;-70
2020/12/17 11:38:08;;;;;;;16.97;11.17;;;8.50;99.90;;;;;;4997725;28;20507;-70
2020/12/17 11:40:35;;;;;;;17.10;8.97;;;8.60;99.90;;;;;;5006387;28;20453;-69
2020/12/17 11:43:02;;;;;;;21.37;11.50;;;8.50;99.90;;;;;;4984646;28;20764;-71
2020/12/17 11:45:29;;;;;;;18.97;10.10;;;8.60;99.90;;;;;;4992949;28;20569;-73
2020/12/17 11:47:55;;;;;;;17.53;11.10;;;8.60;99.90;;;;;;4992565;28;20537;-71
2020/12/17 11:50:22;;;;;;;19.60;10.80;;;8.50;99.90;;;;;;4993297;28;21000;-68
2020/12/17 11:52:48;;;;;;;17.80;10.00;;;8.60;99.90;;;;;;4996815;28;20448;-69
2020/12/17 11:55:15;;;;;;;21.97;10.00;;;8.60;99.90;;;;;;4982228;28;20463;-68
2020/12/17 11:57:41;;;;;;;27.43;10.70;;;8.50;99.90;;;;;;4996545;28;20497;-71
2020/12/17 12:00:10;;;;;;;19.40;10.50;;;8.40;99.90;;;;;;4991843;28;20455;-73
2020/12/17 12:02:37;;;;;;;20.37;11.00;;;8.40;99.90;;;;;;4984840;28;20465;-71
2020/12/17 12:05:04;;;;;;;20.73;11.53;;;8.40;99.90;;;;;;4992193;28;20470;-69
2020/12/17 12:07:31;;;;;;;19.77;11.50;;;8.50;99.90;;;;;;4993216;28;20952;-67
2020/12/17 12:09:57;;;;;;;20.97;13.00;;;8.60;99.90;;;;;;4991669;28;20458;-74
2020/12/17 12:12:24;;;;;;;21.80;12.13;;;8.70;99.90;;;;;;4987752;28;20451;-71
2020/12/17 12:14:50;;;;;;;21.57;13.13;;;8.70;99.90;;;;;;4992887;28;20447;-71
2020/12/17 12:17:18;;;;;;;24.40;13.47;;;8.80;99.90;;;;;;4980187;28;20486;-67
2020/12/17 12:19:45;;;;;;;22.10;12.00;;;8.80;99.90;;;;;;4992111;28;20466;-69
2020/12/17 12:22:11;;;;;;;17.40;11.43;;;8.80;99.90;;;;;;4982399;28;20450;-70
2020/12/17 12:24:38;;;;;;;19.10;10.17;;;8.80;99.90;;;;;;4980266;28;20522;-67
2020/12/17 12:27:04;;;;;;;16.57;9.43;;;8.80;99.90;;;;;;4993837;28;20473;-72
2020/12/17 12:29:31;;;;;;;19.87;10.10;;;8.80;99.90;;;;;;4981769;28;20510;-71
2020/12/17 12:31:58;;;;;;;18.47;11.40;;;8.80;99.90;;;;;;4982675;28;20579;-69
2020/12/17 12:34:25;;;;;;;19.70;10.13;;;8.80;99.90;;;;;;4989340;28;20521;-69
2020/12/17 12:36:53;;;;;;;22.73;11.80;;;8.90;99.90;;;;;;4990404;28;20505;-68
2020/12/17 12:39:21;;;;;;;22.57;11.57;;;8.90;99.90;;;;;;4986264;28;20474;-64
2020/12/17 12:41:48;;;;;;;18.87;10.10;;;9.00;99.90;;;;;;4978526;28;20449;-66
2020/12/17 12:44:15;;;;;;;17.10;10.13;;;9.00;99.90;;;;;;4983872;28;20490;-67
2020/12/17 12:46:42;;;;;;;17.30;9.27;;;8.90;99.90;;;;;;4984152;28;20483;-66
2020/12/17 12:49:09;;;;;;;15.67;10.13;;;9.00;99.90;;;;;;4984576;28;20568;-67
2020/12/17 12:51:36;;;;;;;22.63;10.60;;;9.00;99.90;;;;;;4981449;28;20541;-66
2020/12/17 12:54:03;;;;;;;14.60;9.13;;;9.00;99.90;;;;;;4992937;28;20478;-65
2020/12/17 12:56:29;;;;;;;14.20;8.43;;;9.00;99.90;;;;;;4979546;28;20447;-67
2020/12/17 12:58:56;;;;;;;15.77;9.63;;;9.00;99.90;;;;;;4983768;28;20458;-67
2020/12/17 13:01:23;;;;;;;16.67;7.77;;;8.90;99.90;;;;;;4990688;28;20477;-67
2020/12/17 13:03:50;;;;;;;15.20;7.63;;;8.90;99.90;;;;;;4982210;28;20498;-69
2020/12/17 13:06:19;;;;;;;14.43;8.80;;;8.90;99.90;;;;;;4982246;28;20462;-67
2020/12/17 13:08:48;;;;;;;15.70;7.90;;;9.00;99.90;;;;;;4987528;28;20869;-67
2020/12/17 13:11:18;;;;;;;16.20;8.07;;;9.00;99.90;;;;;;4985124;28;20497;-67
2020/12/17 13:13:45;;;;;;;12.97;7.63;;;9.00;99.90;;;;;;4978496;28;20459;-66
2020/12/17 13:16:13;;;;;;;11.37;8.07;;;9.00;99.90;;;;;;4962284;28;20479;-66
2020/12/17 13:18:40;;;;;;;14.77;8.57;;;9.10;99.90;;;;;;4955500;29;20866;-71
2020/12/17 13:21:06;;;;;;;17.20;10.37;;;9.20;99.90;;;;;;4957302;29;20462;-70
2020/12/17 13:23:33;;;;;;;13.40;8.30;;;9.20;99.90;;;;;;4957329;29;20466;-71
2020/12/17 13:26:01;;;;;;;13.57;8.10;;;9.20;99.90;;;;;;4957590;29;20470;-69
2020/12/17 13:28:28;;;;;;;15.20;8.57;;;9.30;99.90;;;;;;4968533;28;20827;-69
2020/12/17 13:30:55;;;;;;;12.20;8.10;;;9.30;99.90;;;;;;4977553;28;20501;-69
2020/12/17 13:33:21;;;;;;;11.90;7.70;;;9.30;99.90;;;;;;4981003;28;20459;-70
2020/12/17 13:35:48;;;;;;;12.93;8.03;;;9.20;99.90;;;;;;4979981;28;20443;-69
2020/12/17 13:38:15;;;;;;;20.40;9.07;;;9.20;99.90;;;;;;4980242;28;20520;-69
2020/12/17 13:40:42;;;;;;;15.07;8.87;;;9.10;99.90;;;;;;4980462;28;20963;-69
2020/12/17 13:43:14;;;;;;;16.07;9.43;;;9.10;99.90;;;;;;4980897;28;20446;-72
2020/12/17 13:45:41;;;;;;;14.20;8.23;;;9.10;99.90;;;;;;4980847;28;20894;-72
2020/12/17 13:48:08;;;;;;;15.07;8.20;;;9.10;99.90;;;;;;4980642;28;20461;-69
2020/12/17 13:50:35;;;;;;;15.37;8.73;;;9.10;99.90;;;;;;4983695;28;20467;-69
2020/12/17 13:53:02;;;;;;;14.30;8.23;;;9.10;99.90;;;;;;4980785;28;20462;-69
2020/12/17 13:55:29;;;;;;;12.93;8.07;;;9.00;99.90;;;;;;4980877;28;20454;-69
2020/12/17 13:57:55;;;;;;;14.67;8.20;;;9.00;99.90;;;;;;4980712;28;20446;-70
2020/12/17 14:00:23;;;;;;;15.63;10.30;;;8.90;99.90;;;;;;4980385;28;20576;-70
2020/12/17 14:02:49;;;;;;;14.90;10.30;;;8.90;99.90;;;;;;4981077;28;20811;-70
2020/12/17 14:05:16;;;;;;;16.17;8.70;;;8.90;99.90;;;;;;4980969;28;20545;-69
2020/12/17 14:07:43;;;;;;;24.03;9.97;;;8.80;99.90;;;;;;4980766;28;20458;-70
2020/12/17 14:10:10;;;;;;;16.07;10.50;;;8.80;99.90;;;;;;4987586;28;21055;-70
2020/12/17 14:12:38;;;;;;;19.13;9.33;;;8.80;99.90;;;;;;5000514;28;20442;-70
2020/12/17 14:15:05;;;;;;;16.73;8.03;;;8.70;99.90;;;;;;5000053;28;20442;-69
2020/12/17 14:17:33;;;;;;;17.17;10.43;;;8.70;99.90;;;;;;5000197;28;20967;-69
2020/12/17 14:19:59;;;;;;;18.57;8.30;;;8.60;99.90;;;;;;4999874;28;20576;-69
2020/12/17 14:22:26;;;;;;;14.13;8.53;;;8.60;99.90;;;;;;4999536;28;20453;-70
2020/12/17 14:24:53;;;;;;;17.80;10.40;;;8.60;99.90;;;;;;4999606;28;20493;-70
2020/12/17 14:27:20;;;;;;;14.20;8.90;;;8.60;99.90;;;;;;4999958;28;20973;-69
2020/12/17 14:29:47;;;;;;;15.53;9.40;;;8.60;99.90;;;;;;4999692;28;20473;-69
2020/12/17 14:32:14;;;;;;;14.00;8.00;;;8.60;99.90;;;;;;4999435;28;20955;-70
2020/12/17 14:34:42;;;;;;;16.53;9.13;;;8.60;99.90;;;;;;5000658;28;20494;-70
2020/12/17 14:37:11;;;;;;;18.93;9.10;;;8.60;99.90;;;;;;4999379;28;20482;-69
2020/12/17 14:39:38;;;;;;;16.67;9.57;;;8.60;99.90;;;;;;5000322;28;20446;-71
2020/12/17 14:42:05;;;;;;;16.23;9.13;;;8.60;99.90;;;;;;4999305;28;20927;-71
2020/12/17 14:44:32;;;;;;;17.77;9.90;;;8.60;99.90;;;;;;4998375;28;20577;-70
2020/12/17 14:46:59;;;;;;;17.17;9.53;;;8.70;99.90;;;;;;4998944;28;20516;-69
2020/12/17 14:49:26;;;;;;;15.90;10.40;;;8.70;99.90;;;;;;4999540;28;20450;-70
2020/12/17 14:51:55;;;;;;;21.83;10.17;;;8.70;99.90;;;;;;4999583;28;20460;-69
2020/12/17 14:54:22;;;;;;;17.40;9.03;;;8.70;99.90;;;;;;4999146;28;20446;-70
2020/12/17 14:56:49;;;;;;;18.77;10.10;;;8.70;99.90;;;;;;4999680;28;20482;-70
2020/12/17 14:59:18;;;;;;;15.57;9.60;;;8.70;99.90;;;;;;4999242;28;20482;-71
2020/12/17 15:01:45;;;;;;;16.57;8.27;;;8.70;99.90;;;;;;4999641;28;20454;-70
2020/12/17 15:04:12;;;;;;;13.63;8.20;;;8.80;99.90;;;;;;4988874;28;20478;-72
2020/12/17 15:06:39;;;;;;;16.57;8.57;;;8.80;99.90;;;;;;4992157;28;20447;-70
2020/12/17 15:09:07;;;;;;;20.13;8.17;;;8.80;99.90;;;;;;4996174;28;20461;-75
2020/12/17 15:11:35;;;;;;;15.43;8.27;;;8.90;99.90;;;;;;5001555;28;20888;-71
2020/12/17 15:14:02;;;;;;;16.57;9.40;;;8.90;99.90;;;;;;5003419;28;20449;-73
2020/12/17 15:16:28;;;;;;;15.43;8.93;;;9.00;99.90;;;;;;4987968;28;20446;-70
2020/12/17 15:18:55;;;;;;;13.63;7.80;;;9.00;99.90;;;;;;4992930;28;20512;-72
2020/12/17 15:21:22;;;;;;;12.40;8.47;;;9.00;99.90;;;;;;4987908;28;20464;-70
2020/12/17 15:23:48;;;;;;;10.47;7.30;;;9.10;99.90;;;;;;4993450;28;20446;-69
2020/12/17 15:26:16;;;;;;;18.40;8.80;;;9.10;99.90;;;;;;4997284;28;20462;-69
2020/12/17 15:28:48;;;;;;;14.50;9.40;;;9.10;99.90;;;;;;4997473;28;20866;-69
2020/12/17 15:31:15;;;;;;;15.30;8.83;;;9.20;99.90;;;;;;4999389;28;20477;-70
2020/12/17 15:33:42;;;;;;;15.77;10.20;;;9.20;99.90;;;;;;5000328;28;20454;-71
2020/12/17 15:36:09;;;;;;;13.53;8.80;;;9.10;99.90;;;;;;5000000;28;20540;-75
2020/12/17 15:38:36;;;;;;;17.80;9.90;;;9.20;99.90;;;;;;4997357;28;20493;-69
2020/12/17 15:41:07;;;;;;;15.00;9.23;;;9.10;99.90;;;;;;4998663;28;20466;-69
2020/12/17 15:43:35;;;;;;;15.87;8.57;;;9.20;99.90;;;;;;4999094;28;20512;-69
2020/12/17 15:46:04;;;;;;;16.30;9.60;;;9.20;99.90;;;;;;4999243;28;20490;-70
2020/12/17 15:48:33;;;;;;;18.37;8.87;;;9.20;99.90;;;;;;4998557;28;20871;-68
2020/12/17 15:51:00;;;;;;;13.37;8.73;;;9.20;99.90;;;;;;4994493;28;20476;-71
2020/12/17 15:53:27;;;;;;;16.83;9.77;;;9.20;99.90;;;;;;4978153;28;20801;-70
2020/12/17 15:55:53;;;;;;;16.53;9.10;;;9.10;99.90;;;;;;4980499;28;20494;-66
2020/12/17 15:58:25;;;;;;;12.00;9.03;;;9.00;99.90;;;;;;4980497;28;20469;-65
2020/12/17 16:00:52;;;;;;;15.23;9.83;;;9.00;99.90;;;;;;4980732;28;20523;-66
2020/12/17 16:03:19;;;;;;;20.63;10.07;;;9.00;99.90;;;;;;4980761;28;20451;-65
2020/12/17 16:05:46;;;;;;;17.37;10.50;;;8.90;99.90;;;;;;4979564;28;20562;-64
2020/12/17 16:08:13;;;;;;;14.47;8.10;;;8.90;99.90;;;;;;4980540;28;20495;-66
2020/12/17 16:10:41;;;;;;;14.10;7.80;;;8.90;99.90;;;;;;4995669;28;20533;-68
2020/12/17 16:13:07;;;;;;;14.00;8.40;;;8.90;99.90;;;;;;5000872;28;20552;-66
2020/12/17 16:15:37;;;;;;;12.60;8.40;;;8.90;99.90;;;;;;5000340;28;20442;-72
2020/12/17 16:18:06;;;;;;;20.60;9.43;;;8.80;99.90;;;;;;4996389;28;20454;-67
2020/12/17 16:20:33;;;;;;;13.87;7.93;;;8.90;99.90;;;;;;4989361;28;20445;-66
2020/12/17 16:23:00;;;;;;;18.10;10.13;;;8.80;99.90;;;;;;4988993;28;20529;-65
2020/12/17 16:25:27;;;;;;;16.03;8.80;;;8.80;99.90;;;;;;4998518;28;20489;-71
2020/12/17 16:27:56;;;;;;;14.83;10.97;;;8.80;99.90;;;;;;4979851;28;20486;-69
2020/12/17 16:30:23;;;;;;;16.87;9.90;;;8.80;99.90;;;;;;4980454;28;20455;-69
2020/12/17 16:32:50;;;;;;;20.93;10.83;;;8.70;99.90;;;;;;4979360;28;20497;-68
2020/12/17 16:35:18;;;;;;;19.17;10.07;;;8.70;99.90;;;;;;4980446;28;20454;-71
2020/12/17 16:37:50;;;;;;;16.97;9.23;;;8.70;99.90;;;;;;5010109;28;20517;-66
2020/12/17 16:40:17;;;;;;;16.60;10.53;;;8.70;99.90;;;;;;5007490;28;20461;-72
2020/12/17 16:42:46;;;;;;;12.57;8.70;;;8.70;99.90;;;;;;5013863;28;20449;-71
2020/12/17 16:45:13;;;;;;;14.57;9.33;;;8.60;99.90;;;;;;5007260;28;20561;-70
2020/12/17 16:47:40;;;;;;;12.53;8.50;;;8.70;99.90;;;;;;5004299;28;20544;-70
2020/12/17 16:50:07;;;;;;;12.00;7.60;;;8.70;99.90;;;;;;5012412;28;20845;-73
2020/12/17 16:52:36;;;;;;;16.10;9.20;;;8.70;99.90;;;;;;5001995;28;20450;-70
2020/12/17 16:55:05;;;;;;;16.80;9.03;;;8.70;99.90;;;;;;5002263;28;20445;-68
2020/12/17 16:57:32;;;;;;;14.70;9.83;;;8.70;99.90;;;;;;5011239;28;20441;-71
2020/12/17 16:59:59;;;;;;;17.40;8.40;;;8.80;99.90;;;;;;5003513;28;20472;-71
2020/12/17 17:02:28;;;;;;;17.90;8.50;;;8.80;99.90;;;;;;5007988;28;20481;-73
2020/12/17 17:04:55;;;;;;;14.67;9.47;;;8.80;99.90;;;;;;5014978;28;20523;-72
2020/12/17 17:07:22;;;;;;;17.27;10.00;;;8.80;99.90;;;;;;5005012;28;20526;-71
2020/12/17 17:09:50;;;;;;;17.43;10.03;;;8.80;99.90;;;;;;5006653;28;20776;-71
2020/12/17 17:12:20;;;;;;;16.20;10.53;;;8.70;99.90;;;;;;5002460;28;20453;-73
2020/12/17 17:14:47;;;;;;;21.87;12.77;;;8.70;99.90;;;;;;5002716;28;20465;-74
2020/12/17 17:17:14;;;;;;;16.17;10.90;;;8.60;99.90;;;;;;5005927;28;20776;-69
2020/12/17 17:19:40;;;;;;;26.47;13.97;;;8.70;99.90;;;;;;5011634;28;20468;-69
2020/12/17 17:22:07;;;;;;;24.00;9.90;;;8.70;99.90;;;;;;4996589;28;20484;-69
2020/12/17 17:24:34;;;;;;;13.60;9.07;;;8.70;99.90;;;;;;5005125;28;20823;-70
2020/12/17 17:27:02;;;;;;;20.50;8.90;;;8.70;99.90;;;;;;5002380;28;20461;-68
2020/12/17 17:29:32;;;;;;;17.57;8.63;;;8.60;99.90;;;;;;5002514;28;20477;-68
2020/12/17 17:32:00;;;;;;;20.07;9.63;;;8.60;99.90;;;;;;5008578;28;20438;-70
2020/12/17 17:34:28;;;;;;;14.37;10.30;;;8.60;99.90;;;;;;5010446;28;20902;-72
2020/12/17 17:36:55;;;;;;;15.60;8.37;;;8.70;99.90;;;;;;4997745;28;20450;-73
2020/12/17 17:39:23;;;;;;;16.87;8.40;;;8.60;99.90;;;;;;4997825;28;20937;-73
2020/12/17 17:41:52;;;;;;;15.03;8.63;;;8.70;99.90;;;;;;4998331;28;20457;-72
2020/12/17 17:44:20;;;;;;;11.57;8.40;;;8.70;99.90;;;;;;4997841;28;20478;-72
2020/12/17 17:46:51;;;;;;;11.67;8.73;;;8.70;99.90;;;;;;4997364;28;20528;-73
2020/12/17 17:49:19;;;;;;;15.07;8.50;;;8.70;99.90;;;;;;4992312;28;20465;-72
2020/12/17 17:51:53;;;;;;;17.10;9.00;;;8.60;99.90;;;;;;4998028;28;20441;-72
2020/12/17 17:54:20;;;;;;;17.03;9.63;;;8.60;99.90;;;;;;4997595;28;20837;-72
2020/12/17 17:56:47;;;;;;;12.23;8.43;;;8.70;99.90;;;;;;4997728;28;20774;-71
2020/12/17 17:59:14;;;;;;;15.30;8.90;;;8.70;99.90;;;;;;4997740;28;20446;-72
2020/12/17 18:01:42;;;;;;;15.73;9.20;;;8.70;99.90;;;;;;4998282;28;20544;-72
2020/12/17 18:04:10;;;;;;;20.90;9.07;;;8.70;99.90;;;;;;4998423;28;20473;-73
2020/12/17 18:06:37;;;;;;;13.10;8.87;;;8.70;99.90;;;;;;4998015;28;20447;-73
2020/12/17 18:09:04;;;;;;;15.33;8.43;;;8.70;99.90;;;;;;4992191;28;20490;-73
2020/12/17 18:11:36;;;;;;;12.30;9.20;;;8.70;99.90;;;;;;4978317;28;20804;-73
2020/12/17 18:14:04;;;;;;;11.87;8.43;;;8.70;99.90;;;;;;4979542;28;20466;-73
2020/12/17 18:16:31;;;;;;;16.63;9.87;;;8.70;99.90;;;;;;4978379;28;21020;-74
2020/12/17 18:18:58;;;;;;;12.40;9.07;;;8.70;99.90;;;;;;4980589;28;20462;-74
2020/12/17 18:21:25;;;;;;;16.67;9.97;;;8.70;99.90;;;;;;4982119;28;20446;-73
2020/12/17 18:23:52;;;;;;;14.27;9.23;;;8.70;99.90;;;;;;4982152;28;20908;-74
2020/12/17 18:26:22;;;;;;;11.60;7.87;;;8.80;99.90;;;;;;4981774;28;20509;-73
2020/12/17 18:28:50;;;;;;;15.50;8.80;;;8.70;99.90;;;;;;4981146;28;20478;-73
2020/12/17 18:31:17;;;;;;;13.83;8.80;;;8.80;99.90;;;;;;4980463;28;20458;-72
2020/12/17 18:33:44;;;;;;;15.30;9.33;;;8.80;99.90;;;;;;4981237;28;20463;-73
2020/12/17 18:36:14;;;;;;;307.87;198.70;;;8.80;99.90;;;;;;4981584;28;20474;-73
2020/12/17 18:38:41;;;;;;;22.33;15.83;;;8.80;99.90;;;;;;4979886;28;20473;-73
2020/12/17 18:41:08;;;;;;;16.43;10.73;;;8.90;99.90;;;;;;4979887;28;20909;-73
2020/12/17 18:43:35;;;;;;;14.03;7.90;;;8.90;99.90;;;;;;4980782;28;20512;-73
2020/12/17 18:46:02;;;;;;;13.87;8.83;;;8.80;99.90;;;;;;4981378;28;20546;-74
2020/12/17 18:48:29;;;;;;;13.43;9.13;;;8.90;99.90;;;;;;4980625;28;20466;-73
2020/12/17 18:50:56;;;;;;;13.60;8.20;;;8.90;99.90;;;;;;4979496;28;20469;-74
2020/12/17 18:53:27;;;;;;;11.33;8.37;;;8.90;99.90;;;;;;4979950;28;20458;-73
2020/12/17 18:55:53;;;;;;;14.93;9.00;;;8.90;99.90;;;;;;4980595;28;20947;-75
2020/12/17 18:58:20;;;;;;;14.83;10.43;;;8.80;99.90;;;;;;4980031;28;20450;-74
2020/12/17 19:00:47;;;;;;;13.30;8.50;;;8.80;99.90;;;;;;4980111;28;20522;-74
2020/12/17 19:03:14;;;;;;;14.10;8.40;;;8.80;99.90;;;;;;4979733;28;20462;-74
2020/12/17 19:05:41;;;;;;;13.93;9.50;;;8.80;99.90;;;;;;4979993;28;20478;-75
2020/12/17 19:08:08;;;;;;;19.17;9.87;;;8.80;99.90;;;;;;4979386;28;20442;-75
2020/12/17 19:10:36;;;;;;;16.97;9.87;;;8.80;99.90;;;;;;4982625;28;20477;-73
2020/12/17 19:13:03;;;;;;;17.20;10.73;;;8.80;99.90;;;;;;4999112;28;20457;-76
2020/12/17 19:15:29;;;;;;;16.27;10.20;;;8.80;99.90;;;;;;4998149;28;20456;-75
2020/12/17 19:17:56;;;;;;;17.87;10.10;;;8.80;99.90;;;;;;4998261;28;20538;-73
2020/12/17 19:20:23;;;;;;;17.50;11.63;;;8.80;99.90;;;;;;4998458;28;20594;-73
2020/12/17 19:22:50;;;;;;;25.90;10.70;;;8.80;99.90;;;;;;4998401;28;20442;-74
2020/12/17 19:25:17;;;;;;;22.77;12.00;;;8.80;99.90;;;;;;4998071;28;21002;-75
2020/12/17 19:27:45;;;;;;;21.23;11.63;;;8.80;99.90;;;;;;4998455;28;20935;-76
2020/12/17 19:30:12;;;;;;;21.40;12.50;;;8.80;99.90;;;;;;4999646;28;20535;-74